createdAt,value
2022-10-07T00:00:14.667Z,89.04
2022-10-07T00:01:19.247Z,89.09
2022-10-07T00:02:23.375Z,88.71
2022-10-07T00:03:27.471Z,88.30
2022-10-07T00:04:31.916Z,88.89
2022-10-07T00:05:35.017Z,89.21
2022-10-07T00:06:38.727Z,89.08
2022-10-07T00:07:42.314Z,88.54
2022-10-07T00:08:47.293Z,88.94
2022-10-07T00:09:50.703Z,88.88
2022-10-07T00:10:53.571Z,88.80
2022-10-07T00:11:59.137Z,88.80
2022-10-07T00:13:02.780Z,88.78
2022-10-07T00:14:09.936Z,88.77
2022-10-07T00:15:14.182Z,88.81
2022-10-07T00:16:26.676Z,88.94
2022-10-07T00:17:29.955Z,88.88
2022-10-07T00:18:34.619Z,89.11
2022-10-07T00:19:37.709Z,88.84
2022-10-07T00:20:41.828Z,88.56
2022-10-07T00:21:44.632Z,89.08
2022-10-07T00:22:46.922Z,89.71
2022-10-07T00:23:49.766Z,89.80
2022-10-07T00:24:54.182Z,89.67
2022-10-07T00:25:59.676Z,89.43
2022-10-07T00:27:02.025Z,88.92
2022-10-07T00:28:07.401Z,88.98
2022-10-07T00:29:10.922Z,89.42
2022-10-07T00:30:15.159Z,89.53
2022-10-07T00:31:24.949Z,89.18
2022-10-07T00:32:30.955Z,89.24
2022-10-07T00:33:36.855Z,89.55
2022-10-07T00:34:42.335Z,89.83
2022-10-07T00:35:46.151Z,90.48
2022-10-07T00:36:51.432Z,90.66
2022-10-07T00:37:55.878Z,91.00
2022-10-07T00:39:00.845Z,91.09
2022-10-07T00:40:04.766Z,91.18
2022-10-07T00:41:08.481Z,91.31
2022-10-07T00:42:13.238Z,91.55
2022-10-07T00:43:22.802Z,91.71
2022-10-07T00:44:34.337Z,92.12
2022-10-07T00:45:38.296Z,92.17
2022-10-07T00:46:40.733Z,92.30
2022-10-07T00:47:50.599Z,91.84
2022-10-07T00:48:55.292Z,91.64
2022-10-07T00:50:10.037Z,92.15
2022-10-07T00:51:15.747Z,91.86
2022-10-07T00:52:22.071Z,91.28
2022-10-07T00:53:28.228Z,91.13
2022-10-07T00:54:31.437Z,91.02
2022-10-07T00:55:37.746Z,91.17
2022-10-07T00:56:42.870Z,91.28
2022-10-07T00:57:48.308Z,92.14
2022-10-07T00:58:53.430Z,92.18
2022-10-07T00:59:57.819Z,92.21
2022-10-07T01:01:01.336Z,92.24
2022-10-07T01:02:05.511Z,91.90
2022-10-07T01:03:09.236Z,92.26
2022-10-07T01:04:13.160Z,91.86
2022-10-07T01:05:19.413Z,91.80
2022-10-07T01:06:22.465Z,92.02
2022-10-07T01:07:25.336Z,92.76
2022-10-07T01:08:29.163Z,92.91
2022-10-07T01:09:32.869Z,92.92
2022-10-07T01:10:53.608Z,92.99
2022-10-07T01:12:10.725Z,93.75
2022-10-07T01:13:16.192Z,93.75
2022-10-07T01:14:39.633Z,93.85
2022-10-07T01:15:45.028Z,94.46
2022-10-07T01:17:00.488Z,94.49
2022-10-07T01:18:10.528Z,94.45
2022-10-07T01:19:15.807Z,94.68
2022-10-07T01:20:22.450Z,94.78
2022-10-07T01:21:45.901Z,94.76
2022-10-07T01:22:56.195Z,95.24
2022-10-07T01:24:07.116Z,95.37
2022-10-07T01:25:14.486Z,95.19
2022-10-07T01:26:28.112Z,94.97
2022-10-07T01:27:31.930Z,94.99
2022-10-07T01:28:39.458Z,95.66
2022-10-07T01:29:50.439Z,96.03
2022-10-07T01:30:58.948Z,96.85
2022-10-07T01:32:05.585Z,97.03
2022-10-07T01:33:12.652Z,97.56
2022-10-07T01:34:16.779Z,97.43
2022-10-07T01:35:23.393Z,96.94
2022-10-07T01:36:27.653Z,97.25
2022-10-07T01:37:33.139Z,97.08
2022-10-07T01:38:38.522Z,97.07
2022-10-07T01:39:42.553Z,96.81
2022-10-07T01:40:48.856Z,96.45
2022-10-07T01:41:54.976Z,96.41
2022-10-07T01:42:59.136Z,96.71
2022-10-07T01:44:03.151Z,97.78
2022-10-07T01:45:09.903Z,98.27
2022-10-07T01:46:21.549Z,98.77
2022-10-07T01:47:29.014Z,99.69
2022-10-07T01:48:33.893Z,99.71
2022-10-07T01:49:39.358Z,98.98
2022-10-07T01:50:45.396Z,99.28
2022-10-07T01:51:50.570Z,99.20
2022-10-07T01:52:57.482Z,98.83
2022-10-07T01:54:10.437Z,98.44
2022-10-07T01:55:16.900Z,98.09
2022-10-07T01:56:24.815Z,98.63
2022-10-07T01:57:43.020Z,98.42
2022-10-07T01:58:49.835Z,98.79
2022-10-07T01:59:56.378Z,98.41
2022-10-07T02:01:04.734Z,98.36
2022-10-07T02:02:30.204Z,98.49
2022-10-07T02:03:37.927Z,98.34
2022-10-07T02:05:02.595Z,98.29
2022-10-07T02:06:22.720Z,98.62
2022-10-07T02:07:40.417Z,98.12
2022-10-07T02:08:49.699Z,98.02
2022-10-07T02:10:01.018Z,98.08
2022-10-07T02:11:20.930Z,98.03
2022-10-07T02:12:33.709Z,97.54
2022-10-07T02:13:46.730Z,96.84
2022-10-07T02:14:59.663Z,96.83
2022-10-07T02:16:12.143Z,96.72
2022-10-07T02:17:20.470Z,97.45
2022-10-07T02:18:23.211Z,97.08
2022-10-07T02:19:36.010Z,97.67
2022-10-07T02:20:40.541Z,97.82
2022-10-07T02:21:45.734Z,97.91
2022-10-07T02:22:50.519Z,97.92
2022-10-07T02:23:54.717Z,98.37
2022-10-07T02:25:00.114Z,98.38
2022-10-07T02:26:05.382Z,99.08
2022-10-07T02:27:11.614Z,99.73
2022-10-07T02:28:18.694Z,99.96
2022-10-07T02:29:24.614Z,100.00
2022-10-07T02:30:29.534Z,100.00
2022-10-07T02:31:36.287Z,100.00
2022-10-07T02:32:44.180Z,100.00
2022-10-07T02:33:48.702Z,100.00
2022-10-07T02:34:53.795Z,100.00
2022-10-07T02:36:03.468Z,100.00
2022-10-07T02:37:08.125Z,100.00
2022-10-07T02:38:12.569Z,100.00
2022-10-07T02:39:16.072Z,100.00
2022-10-07T02:40:19.780Z,100.00
2022-10-07T02:41:34.258Z,100.00
2022-10-07T02:42:43.299Z,100.00
2022-10-07T02:43:49.195Z,100.00
2022-10-07T02:44:57.063Z,100.00
2022-10-07T02:46:01.476Z,100.00
2022-10-07T02:47:17.155Z,100.00
2022-10-07T02:48:25.368Z,100.00
2022-10-07T02:49:29.651Z,100.00
2022-10-07T02:50:35.096Z,100.00
2022-10-07T02:51:47.049Z,100.00
2022-10-07T02:52:53.688Z,100.00
2022-10-07T02:53:59.895Z,100.00
2022-10-07T02:55:04.051Z,100.00
2022-10-07T02:56:08.326Z,100.00
2022-10-07T02:57:13.615Z,100.00
2022-10-07T02:58:19.907Z,100.00
2022-10-07T02:59:26.118Z,100.00
2022-10-07T03:00:31.500Z,100.00
2022-10-07T03:01:37.575Z,100.00
2022-10-07T03:02:43.521Z,100.00
2022-10-07T03:03:48.992Z,100.00
2022-10-07T03:04:52.726Z,100.00
2022-10-07T03:05:56.648Z,100.00
2022-10-07T03:07:01.893Z,100.00
2022-10-07T03:08:08.044Z,100.00
2022-10-07T03:09:13.629Z,100.00
2022-10-07T03:10:18.114Z,100.00
2022-10-07T03:11:21.475Z,100.00
2022-10-07T03:12:24.560Z,100.00
2022-10-07T03:13:29.308Z,100.00
2022-10-07T03:14:36.375Z,100.00
2022-10-07T03:15:43.514Z,100.00
2022-10-07T03:16:50.904Z,100.00
2022-10-07T03:17:54.619Z,100.00
2022-10-07T03:18:59.554Z,100.00
2022-10-07T03:20:07.906Z,100.00
2022-10-07T03:21:11.412Z,100.00
2022-10-07T03:22:15.022Z,100.00
2022-10-07T03:23:19.352Z,100.00
2022-10-07T03:24:25.883Z,100.00
2022-10-07T03:25:29.704Z,100.00
2022-10-07T03:26:33.637Z,100.00
2022-10-07T03:27:41.568Z,100.00
2022-10-07T03:28:45.859Z,100.00
2022-10-07T03:29:53.647Z,100.00
2022-10-07T03:30:58.856Z,100.00
2022-10-07T03:32:02.953Z,100.00
2022-10-07T03:33:06.236Z,100.00
2022-10-07T03:34:14.534Z,100.00
2022-10-07T03:35:19.641Z,100.00
2022-10-07T03:36:23.876Z,100.00
2022-10-07T03:37:28.416Z,100.00
2022-10-07T03:38:32.350Z,100.00
2022-10-07T03:39:38.028Z,100.00
2022-10-07T03:40:43.239Z,100.00
2022-10-07T03:41:49.348Z,100.00
2022-10-07T03:42:52.770Z,99.91
2022-10-07T03:43:58.022Z,100.00
2022-10-07T03:45:03.234Z,100.00
2022-10-07T03:46:06.773Z,100.00
2022-10-07T03:47:13.446Z,99.54
2022-10-07T03:48:17.472Z,98.92
2022-10-07T03:49:21.084Z,98.26
2022-10-07T03:50:26.033Z,98.43
2022-10-07T03:51:29.553Z,98.24
2022-10-07T03:52:31.818Z,98.60
2022-10-07T03:54:41.311Z,97.93
2022-10-07T03:55:44.505Z,97.61
2022-10-07T03:56:49.063Z,97.33
2022-10-07T03:57:58.402Z,97.69
2022-10-07T03:58:57.121Z,98.14
2022-10-07T04:00:01.776Z,98.22
2022-10-07T04:01:09.597Z,97.92
2022-10-07T04:02:15.351Z,98.01
2022-10-07T04:03:19.724Z,98.76
2022-10-07T04:04:25.971Z,98.69
2022-10-07T04:05:29.558Z,98.53
2022-10-07T04:06:33.144Z,98.64
2022-10-07T04:07:38.527Z,98.49
2022-10-07T04:08:41.507Z,98.04
2022-10-07T04:09:46.162Z,97.72
2022-10-07T04:10:52.591Z,97.27
2022-10-07T04:11:55.157Z,98.83
2022-10-07T04:12:58.243Z,98.85
2022-10-07T04:14:02.691Z,98.78
2022-10-07T04:15:07.036Z,99.33
2022-10-07T04:16:13.802Z,99.13
2022-10-07T04:17:25.313Z,98.58
2022-10-07T04:18:29.033Z,99.46
2022-10-07T04:19:32.541Z,99.58
2022-10-07T04:20:38.446Z,99.58
2022-10-07T04:21:42.717Z,99.40
2022-10-07T04:22:47.441Z,99.27
2022-10-07T04:23:51.375Z,99.11
2022-10-07T04:25:12.835Z,99.52
2022-10-07T04:26:16.203Z,100.00
2022-10-07T04:27:47.086Z,100.00
2022-10-07T04:28:33.491Z,100.00
2022-10-07T04:29:41.058Z,100.00
2022-10-07T04:30:44.970Z,100.00
2022-10-07T04:31:49.549Z,99.85
2022-10-07T04:32:54.127Z,100.00
2022-10-07T04:33:58.667Z,100.00
2022-10-07T04:35:04.008Z,99.87
2022-10-07T04:36:09.925Z,99.57
2022-10-07T04:37:16.549Z,99.96
2022-10-07T04:38:19.961Z,100.00
2022-10-07T04:39:42.826Z,100.00
2022-10-07T04:40:33.446Z,99.67
2022-10-07T04:41:40.122Z,99.17
2022-10-07T04:43:03.228Z,100.00
2022-10-07T04:44:07.789Z,100.00
2022-10-07T04:45:13.048Z,98.28
2022-10-07T04:46:15.990Z,96.03
2022-10-07T04:47:20.220Z,96.23
2022-10-07T04:48:23.350Z,97.24
2022-10-07T04:49:27.065Z,96.68
2022-10-07T04:50:32.818Z,97.05
2022-10-07T04:51:37.324Z,97.21
2022-10-07T04:52:42.915Z,96.76
2022-10-07T04:53:51.025Z,97.23
2022-10-07T04:54:54.732Z,97.19
2022-10-07T04:55:58.334Z,96.91
2022-10-07T04:57:00.686Z,97.72
2022-10-07T04:58:05.349Z,96.95
2022-10-07T04:59:08.962Z,96.48
2022-10-07T05:00:15.012Z,95.85
2022-10-07T05:01:17.703Z,95.92
2022-10-07T05:02:22.752Z,94.61
2022-10-07T05:03:26.740Z,93.15
2022-10-07T05:04:29.620Z,92.80
2022-10-07T05:05:35.030Z,92.95
2022-10-07T05:06:38.765Z,93.56
2022-10-07T05:07:41.375Z,93.74
2022-10-07T05:08:44.672Z,94.07
2022-10-07T05:09:49.243Z,94.31
2022-10-07T05:10:56.705Z,93.84
2022-10-07T05:12:02.508Z,93.25
2022-10-07T05:13:06.637Z,93.06
2022-10-07T05:14:09.624Z,93.23
2022-10-07T05:15:13.755Z,92.15
2022-10-07T05:16:18.328Z,90.81
2022-10-07T05:17:22.435Z,88.88
2022-10-07T05:18:27.715Z,87.70
2022-10-07T05:19:32.196Z,86.58
2022-10-07T05:20:39.246Z,85.77
2022-10-07T05:21:44.491Z,84.73
2022-10-07T05:22:47.366Z,84.51
2022-10-07T05:23:50.559Z,84.33
2022-10-07T05:24:57.832Z,83.99
2022-10-07T05:26:02.478Z,83.80
2022-10-07T05:27:05.362Z,83.29
2022-10-07T05:28:10.513Z,82.61
2022-10-07T05:29:15.926Z,82.97
2022-10-07T05:30:25.075Z,82.98
2022-10-07T05:31:32.061Z,82.07
2022-10-07T05:32:38.033Z,80.77
2022-10-07T05:33:41.006Z,80.77
2022-10-07T05:34:45.253Z,80.78
2022-10-07T05:35:48.863Z,80.50
2022-10-07T05:36:57.246Z,80.72
2022-10-07T05:38:01.391Z,81.14
2022-10-07T05:39:05.558Z,81.72
2022-10-07T05:40:10.915Z,81.59
2022-10-07T05:41:15.787Z,81.37
2022-10-07T05:42:20.430Z,81.72
2022-10-07T05:43:28.855Z,81.53
2022-10-07T05:44:33.081Z,80.65
2022-10-07T05:45:40.077Z,81.49
2022-10-07T05:46:44.592Z,81.81
2022-10-07T05:47:48.928Z,81.83
2022-10-07T05:48:53.693Z,81.51
2022-10-07T05:49:59.214Z,82.14
2022-10-07T05:51:02.571Z,81.72
2022-10-07T05:52:08.687Z,80.45
2022-10-07T05:53:14.960Z,79.49
2022-10-07T05:54:21.290Z,78.03
2022-10-07T05:55:25.166Z,76.48
2022-10-07T05:56:28.406Z,77.38
2022-10-07T05:57:32.072Z,78.14
2022-10-07T05:58:38.499Z,77.79
2022-10-07T05:59:44.979Z,78.38
2022-10-07T06:01:01.058Z,77.94
2022-10-07T06:02:04.551Z,78.45
2022-10-07T06:03:08.650Z,78.01
2022-10-07T06:04:14.112Z,77.67
2022-10-07T06:05:20.410Z,77.07
2022-10-07T06:06:27.498Z,77.53
2022-10-07T06:07:32.131Z,77.26
2022-10-07T06:08:36.807Z,77.63
2022-10-07T06:09:58.986Z,77.45
2022-10-07T06:11:23.160Z,77.72
2022-10-07T06:12:48.857Z,77.15
2022-10-07T06:13:54.048Z,77.45
2022-10-07T06:14:56.447Z,76.05
2022-10-07T06:16:03.619Z,74.81
2022-10-07T06:17:06.797Z,74.13
2022-10-07T06:18:10.829Z,73.53
2022-10-07T06:19:16.729Z,72.82
2022-10-07T06:20:20.249Z,72.04
2022-10-07T06:21:27.546Z,71.22
2022-10-07T06:22:35.547Z,70.26
2022-10-07T06:23:38.805Z,70.09
2022-10-07T06:24:43.995Z,69.95
2022-10-07T06:25:55.843Z,68.80
2022-10-07T06:27:00.758Z,67.33
2022-10-07T06:28:04.668Z,64.97
2022-10-07T06:29:09.165Z,63.16
2022-10-07T06:30:13.716Z,61.71
2022-10-07T06:31:20.550Z,61.20
2022-10-07T06:32:24.351Z,62.00
2022-10-07T06:33:27.063Z,62.93
2022-10-07T06:34:30.461Z,64.79
2022-10-07T06:35:32.703Z,64.84
2022-10-07T06:36:36.211Z,63.47
2022-10-07T06:37:40.037Z,61.76
2022-10-07T06:38:49.527Z,60.63
2022-10-07T06:39:58.687Z,61.98
2022-10-07T06:41:02.444Z,61.59
2022-10-07T06:42:07.106Z,59.69
2022-10-07T06:43:29.832Z,57.63
2022-10-07T06:44:36.523Z,55.51
2022-10-07T06:45:41.971Z,53.77
2022-10-07T06:46:46.725Z,51.78
2022-10-07T06:47:51.135Z,49.14
2022-10-07T06:48:53.930Z,48.30
2022-10-07T06:49:59.743Z,49.81
2022-10-07T06:51:03.376Z,50.54
2022-10-07T06:52:08.113Z,47.44
2022-10-07T06:53:12.140Z,43.47
2022-10-07T06:54:15.007Z,40.13
2022-10-07T06:55:17.792Z,37.54
2022-10-07T06:56:21.219Z,35.11
2022-10-07T06:57:44.865Z,34.64
2022-10-07T06:58:33.214Z,33.90
2022-10-07T06:59:37.689Z,32.41
2022-10-07T07:25:54.200Z,26.82
2022-10-07T07:27:00.646Z,27.55
2022-10-07T07:28:06.971Z,26.89
2022-10-07T07:29:12.464Z,25.64
2022-10-07T07:30:21.606Z,25.43
2022-10-07T07:31:26.138Z,25.44
2022-10-07T07:32:32.194Z,25.79
2022-10-07T07:33:38.385Z,26.09
2022-10-07T07:34:42.078Z,25.94
2022-10-07T07:35:49.081Z,25.91
2022-10-07T07:36:54.110Z,25.49
2022-10-07T07:38:00.758Z,25.20
2022-10-07T07:39:06.456Z,25.30
2022-10-07T07:40:10.587Z,24.58
2022-10-07T07:41:13.779Z,24.71
2022-10-07T07:42:17.169Z,25.09
2022-10-07T07:43:22.043Z,25.55
2022-10-07T07:44:32.577Z,25.69
2022-10-07T07:45:38.442Z,25.08
2022-10-07T07:46:44.919Z,24.89
2022-10-07T07:47:50.585Z,25.05
2022-10-07T07:48:55.210Z,24.18
2022-10-07T07:49:58.208Z,24.66
2022-10-07T07:51:05.161Z,24.69
2022-10-07T07:52:08.779Z,25.24
2022-10-07T07:53:14.257Z,25.31
2022-10-07T07:54:20.491Z,25.30
2022-10-07T07:55:24.819Z,25.04
2022-10-07T07:56:29.380Z,25.17
2022-10-07T07:57:33.917Z,25.98
2022-10-07T07:58:38.679Z,26.80
2022-10-07T07:59:42.399Z,26.65
2022-10-07T08:00:45.896Z,26.56
2022-10-07T08:01:49.817Z,26.39
2022-10-07T08:02:54.420Z,26.16
2022-10-07T08:03:57.360Z,25.68
2022-10-07T08:05:00.790Z,25.42
2022-10-07T08:06:05.930Z,25.02
2022-10-07T08:07:11.303Z,25.17
2022-10-07T08:08:16.392Z,26.06
2022-10-07T08:09:20.992Z,26.34
2022-10-07T08:10:28.558Z,26.99
2022-10-07T08:11:33.603Z,27.34
2022-10-07T08:12:38.246Z,27.08
2022-10-07T08:13:41.438Z,27.66
2022-10-07T08:14:47.971Z,28.70
2022-10-07T08:15:53.632Z,28.32
2022-10-07T08:16:57.610Z,28.15
2022-10-07T08:18:05.068Z,27.57
2022-10-07T08:19:11.433Z,27.73
2022-10-07T08:20:16.770Z,26.73
2022-10-07T08:21:22.720Z,26.15
2022-10-07T08:22:29.041Z,26.94
2022-10-07T08:23:33.037Z,28.16
2022-10-07T08:24:36.783Z,28.46
2022-10-07T08:25:39.931Z,29.27
2022-10-07T08:26:43.646Z,30.22
2022-10-07T08:27:49.667Z,30.47
2022-10-07T08:28:53.592Z,30.47
2022-10-07T08:29:56.997Z,29.90
2022-10-07T08:31:09.900Z,29.99
2022-10-07T08:32:13.057Z,29.99
2022-10-07T08:33:17.323Z,30.93
2022-10-07T08:34:20.726Z,31.88
2022-10-07T08:35:24.046Z,32.09
2022-10-07T08:36:29.092Z,32.34
2022-10-07T08:37:32.585Z,32.94
2022-10-07T08:38:37.241Z,33.51
2022-10-07T08:39:41.362Z,34.48
2022-10-07T08:40:49.649Z,34.71
2022-10-07T08:41:59.139Z,34.57
2022-10-07T08:43:02.760Z,35.06
2022-10-07T08:44:19.529Z,36.33
2022-10-07T08:45:30.849Z,35.72
2022-10-07T08:46:35.054Z,35.99
2022-10-07T08:47:46.041Z,36.16
2022-10-07T08:48:51.479Z,36.76
2022-10-07T08:50:04.658Z,36.89
2022-10-07T08:51:09.794Z,36.86
2022-10-07T08:52:33.573Z,36.92
2022-10-07T08:53:37.289Z,36.66
2022-10-07T08:54:42.149Z,37.92
2022-10-07T08:55:48.684Z,37.95
2022-10-07T08:56:53.848Z,38.27
2022-10-07T08:58:07.067Z,37.83
2022-10-07T08:59:28.460Z,38.19
2022-10-07T09:00:33.716Z,38.16
2022-10-07T09:01:41.871Z,38.11
2022-10-07T09:03:07.148Z,37.01
2022-10-07T09:04:24.873Z,37.71
2022-10-07T09:05:30.359Z,37.32
2022-10-07T09:06:38.355Z,36.77
2022-10-07T09:07:47.609Z,37.45
2022-10-07T09:08:55.915Z,37.94
2022-10-07T09:10:07.871Z,37.45
2022-10-07T09:11:21.862Z,38.07
2022-10-07T09:12:28.259Z,37.46
2022-10-07T09:13:33.541Z,37.39
2022-10-07T09:14:44.296Z,37.37
2022-10-07T09:16:01.469Z,38.24
2022-10-07T09:17:14.863Z,37.52
2022-10-07T09:18:25.787Z,37.02
2022-10-07T09:19:38.382Z,36.94
2022-10-07T09:20:46.678Z,36.38
2022-10-07T09:21:50.926Z,36.80
2022-10-07T09:22:56.729Z,37.58
2022-10-07T09:24:05.142Z,37.91
2022-10-07T09:25:15.290Z,39.05
2022-10-07T09:26:19.759Z,38.47
2022-10-07T09:27:24.398Z,38.65
2022-10-07T09:28:31.808Z,38.12
2022-10-07T09:29:36.139Z,38.37
2022-10-07T09:30:39.439Z,39.11
2022-10-07T09:31:42.000Z,39.15
2022-10-07T09:32:46.719Z,38.89
2022-10-07T09:33:53.539Z,38.44
2022-10-07T09:34:56.744Z,38.29
2022-10-07T09:36:08.033Z,38.60
2022-10-07T09:37:20.207Z,38.58
2022-10-07T09:38:33.344Z,38.37
2022-10-07T09:39:37.453Z,36.75
2022-10-07T09:41:06.590Z,36.52
2022-10-07T09:42:23.746Z,36.44
2022-10-07T09:43:29.218Z,36.96
2022-10-07T09:44:33.251Z,37.38
2022-10-07T09:45:37.100Z,37.12
2022-10-07T09:46:47.942Z,36.88
2022-10-07T09:47:54.135Z,36.91
2022-10-07T09:48:59.910Z,36.98
2022-10-07T09:50:04.043Z,37.70
2022-10-07T09:51:17.156Z,37.43
2022-10-07T09:52:22.144Z,37.75
2022-10-07T09:53:26.976Z,38.56
2022-10-07T09:54:31.122Z,39.46
2022-10-07T09:55:37.464Z,39.62
2022-10-07T09:56:44.074Z,40.05
2022-10-07T09:57:49.075Z,40.75
2022-10-07T09:58:54.318Z,40.85
2022-10-07T10:00:17.252Z,41.00
2022-10-07T10:01:20.740Z,40.90
2022-10-07T10:02:27.577Z,39.60
2022-10-07T10:03:32.710Z,39.84
2022-10-07T10:04:38.372Z,39.04
2022-10-07T10:06:01.421Z,39.00
2022-10-07T10:07:09.834Z,39.09
2022-10-07T10:08:21.176Z,38.57
2022-10-07T10:09:26.454Z,38.56
2022-10-07T10:10:32.883Z,38.42
2022-10-07T10:11:36.493Z,38.24
2022-10-07T10:12:42.833Z,39.36
2022-10-07T10:13:48.724Z,39.93
2022-10-07T10:14:53.370Z,39.85
2022-10-07T10:15:56.428Z,40.57
2022-10-07T10:16:59.971Z,41.01
2022-10-07T10:18:04.624Z,41.84
2022-10-07T10:19:24.518Z,41.74
2022-10-07T10:20:30.126Z,41.97
2022-10-07T10:21:38.330Z,41.97
2022-10-07T10:22:41.795Z,41.75
2022-10-07T10:23:46.903Z,41.10
2022-10-07T10:25:10.395Z,41.99
2022-10-07T10:26:33.592Z,41.39
2022-10-07T10:27:38.972Z,42.88
2022-10-07T10:28:51.903Z,42.73
2022-10-07T10:29:59.915Z,41.22
2022-10-07T10:31:04.459Z,42.04
2022-10-07T10:32:09.574Z,42.64
2022-10-07T10:33:17.081Z,43.55
2022-10-07T10:34:39.395Z,43.96
2022-10-07T10:35:48.635Z,44.09
2022-10-07T10:36:56.840Z,43.03
2022-10-07T10:38:17.578Z,42.89
2022-10-07T10:39:27.864Z,43.14
2022-10-07T10:40:39.247Z,42.24
2022-10-07T10:41:49.203Z,42.14
2022-10-07T10:42:57.438Z,41.55
2022-10-07T10:44:09.367Z,41.14
2022-10-07T10:45:13.808Z,41.26
2022-10-07T10:46:20.104Z,41.84
2022-10-07T10:47:25.100Z,42.37
2022-10-07T10:48:38.120Z,41.58
2022-10-07T10:49:56.133Z,41.59
2022-10-07T10:51:11.242Z,42.15
2022-10-07T10:52:18.821Z,42.75
2022-10-07T10:53:23.684Z,43.00
2022-10-07T10:54:31.077Z,42.91
2022-10-07T10:55:56.770Z,43.22
2022-10-07T10:57:06.683Z,43.40
2022-10-07T10:58:11.743Z,42.61
2022-10-07T10:59:23.093Z,42.73
2022-10-07T11:00:31.853Z,41.20
2022-10-07T11:01:41.866Z,40.92
2022-10-07T11:02:47.248Z,41.43
2022-10-07T11:03:52.664Z,41.17
2022-10-07T11:05:01.619Z,41.18
2022-10-07T11:06:05.838Z,41.45
2022-10-07T11:07:22.438Z,41.05
2022-10-07T11:08:35.746Z,40.84
2022-10-07T11:09:43.206Z,40.43
2022-10-07T11:10:58.411Z,39.82
2022-10-07T11:12:03.273Z,40.08
2022-10-07T11:13:23.895Z,40.60
2022-10-07T11:14:31.738Z,40.61
2022-10-07T11:15:37.079Z,40.69
2022-10-07T11:16:42.217Z,39.96
2022-10-07T11:17:48.963Z,39.76
2022-10-07T11:18:55.795Z,39.08
2022-10-07T11:20:18.889Z,38.64
2022-10-07T11:21:28.330Z,38.50
2022-10-07T11:22:33.506Z,38.30
2022-10-07T11:23:41.202Z,38.46
2022-10-07T11:24:53.051Z,38.97
2022-10-07T11:26:07.428Z,39.06
2022-10-07T11:27:21.993Z,39.35
2022-10-07T11:28:27.115Z,39.28
2022-10-07T11:29:50.534Z,39.89
2022-10-07T11:30:54.596Z,40.01
2022-10-07T11:32:09.345Z,39.48
2022-10-07T11:33:20.475Z,39.64
2022-10-07T11:34:26.682Z,40.06
2022-10-07T11:35:34.887Z,40.54
2022-10-07T11:36:41.851Z,41.16
2022-10-07T11:37:51.935Z,41.13
2022-10-07T11:38:55.117Z,40.77
2022-10-07T11:39:58.841Z,41.01
2022-10-07T11:41:04.540Z,41.03
2022-10-07T11:42:19.507Z,41.32
2022-10-07T11:43:41.306Z,41.13
2022-10-07T11:44:55.894Z,39.80
2022-10-07T11:46:04.231Z,40.12
2022-10-07T11:47:10.006Z,40.74
2022-10-07T11:48:15.391Z,41.30
2022-10-07T11:49:38.999Z,41.11
2022-10-07T11:50:57.529Z,39.98
2022-10-07T11:52:07.572Z,39.89
2022-10-07T11:53:15.369Z,40.16
2022-10-07T11:54:21.520Z,40.33
2022-10-07T11:55:27.078Z,40.68
2022-10-07T11:56:40.280Z,40.76
2022-10-07T11:57:44.430Z,41.34
2022-10-07T11:58:50.743Z,41.29
2022-10-07T12:00:02.238Z,41.66
2022-10-07T12:01:29.507Z,41.77
2022-10-07T12:02:33.841Z,42.29
2022-10-07T12:03:41.007Z,42.01
2022-10-07T12:04:43.270Z,41.80
2022-10-07T12:05:54.607Z,42.09
2022-10-07T12:07:19.316Z,41.99
2022-10-07T12:08:26.257Z,42.70
2022-10-07T12:09:48.365Z,42.35
2022-10-07T12:10:53.008Z,42.52
2022-10-07T12:11:57.558Z,42.39
2022-10-07T12:13:02.423Z,42.45
2022-10-07T12:14:25.468Z,42.92
2022-10-07T12:15:42.544Z,43.14
2022-10-07T12:16:55.236Z,43.27
2022-10-07T12:18:06.193Z,42.83
2022-10-07T12:19:13.005Z,42.92
2022-10-07T12:20:38.810Z,42.12
2022-10-07T12:21:59.405Z,42.15
2022-10-07T12:23:08.120Z,42.49
2022-10-07T12:24:13.412Z,42.34
2022-10-07T12:26:39.001Z,41.04
2022-10-07T12:27:47.455Z,41.14
2022-10-07T12:28:52.592Z,40.82
2022-10-07T12:29:59.771Z,41.30
2022-10-07T12:31:07.924Z,41.54
2022-10-07T12:32:32.394Z,41.91
2022-10-07T12:33:37.424Z,42.04
2022-10-07T12:34:46.041Z,43.07
2022-10-07T12:35:54.535Z,42.98
2022-10-07T12:36:59.637Z,43.26
2022-10-07T12:38:20.885Z,42.60
2022-10-07T12:39:29.075Z,42.52
2022-10-07T12:40:34.279Z,42.50
2022-10-07T12:41:41.230Z,42.67
2022-10-07T12:42:48.454Z,42.45
2022-10-07T12:44:13.320Z,42.37
2022-10-07T12:45:16.501Z,42.19
2022-10-07T12:46:21.715Z,42.34
2022-10-07T12:47:30.315Z,43.24
2022-10-07T12:48:35.695Z,42.20
2022-10-07T12:49:43.262Z,42.66
2022-10-07T12:50:48.346Z,43.02
2022-10-07T12:51:53.302Z,42.88
2022-10-07T12:52:58.270Z,43.02
2022-10-07T12:54:01.982Z,42.44
2022-10-07T12:55:11.446Z,42.75
2022-10-07T12:56:17.037Z,42.80
2022-10-07T12:57:22.107Z,43.03
2022-10-07T12:58:52.352Z,43.36
2022-10-07T13:00:10.780Z,43.98
2022-10-07T13:01:25.358Z,43.88
2022-10-07T13:02:47.703Z,43.49
2022-10-07T13:04:07.276Z,43.14
2022-10-07T13:05:28.706Z,43.91
2022-10-07T13:06:33.914Z,43.21
2022-10-07T13:07:56.122Z,43.31
2022-10-07T13:09:19.054Z,42.95
2022-10-07T13:10:23.698Z,43.33
2022-10-07T13:11:44.322Z,42.82
2022-10-07T13:12:51.702Z,42.93
2022-10-07T13:13:56.471Z,42.85
2022-10-07T13:15:16.689Z,43.08
2022-10-07T13:16:25.290Z,43.76
2022-10-07T13:17:35.073Z,43.73
2022-10-07T13:18:43.590Z,43.64
2022-10-07T13:19:57.687Z,43.92
2022-10-07T13:21:03.041Z,43.37
2022-10-07T13:22:18.558Z,43.50
2022-10-07T13:23:27.041Z,42.91
2022-10-07T13:24:30.348Z,43.51
2022-10-07T13:25:33.773Z,43.91
2022-10-07T13:26:38.866Z,44.32
2022-10-07T13:27:43.080Z,44.67
2022-10-07T13:28:51.589Z,44.75
2022-10-07T13:29:57.018Z,44.58
2022-10-07T13:31:02.265Z,44.29
2022-10-07T13:32:07.296Z,45.05
2022-10-07T13:33:17.631Z,45.29
2022-10-07T13:34:21.134Z,45.14
2022-10-07T13:35:34.007Z,45.22
2022-10-07T13:36:41.837Z,44.37
2022-10-07T13:37:46.589Z,44.61
2022-10-07T13:38:50.511Z,44.55
2022-10-07T13:39:56.833Z,44.19
2022-10-07T13:41:19.795Z,43.91
2022-10-07T13:42:24.305Z,43.88
2022-10-07T13:43:29.153Z,43.74
2022-10-07T13:44:33.135Z,43.29
2022-10-07T13:45:43.830Z,43.18
2022-10-07T13:46:52.015Z,43.94
2022-10-07T13:47:59.289Z,43.57
2022-10-07T13:49:04.158Z,43.85
2022-10-07T13:50:08.613Z,43.84
2022-10-07T13:51:16.796Z,43.74
2022-10-07T13:52:31.923Z,43.61
2022-10-07T13:53:38.429Z,43.90
2022-10-07T13:54:43.271Z,44.29
2022-10-07T13:55:48.105Z,43.86
2022-10-07T13:56:52.606Z,44.36
2022-10-07T13:57:58.088Z,43.90
2022-10-07T13:59:01.291Z,44.27
2022-10-07T14:00:04.785Z,44.41
2022-10-07T14:01:10.794Z,45.43
2022-10-07T14:02:16.185Z,44.86
2022-10-07T14:03:20.511Z,44.53
2022-10-07T14:04:29.868Z,45.71
2022-10-07T14:05:32.953Z,45.42
2022-10-07T14:06:38.028Z,45.41
2022-10-07T14:07:41.454Z,45.18
2022-10-07T14:08:47.647Z,45.50
2022-10-07T14:09:53.042Z,45.61
2022-10-07T14:11:04.172Z,45.42
2022-10-07T14:12:09.246Z,45.29
2022-10-07T14:13:14.351Z,45.48
2022-10-07T14:14:22.206Z,45.29
2022-10-07T14:15:27.791Z,45.13
2022-10-07T14:16:31.450Z,45.40
2022-10-07T14:17:38.012Z,46.14
2022-10-07T14:18:43.114Z,46.18
2022-10-07T14:19:49.435Z,45.86
2022-10-07T14:20:53.566Z,45.82
2022-10-07T14:22:00.463Z,46.00
2022-10-07T14:23:08.939Z,46.27
2022-10-07T14:24:12.266Z,46.07
2022-10-07T14:25:22.631Z,46.64
2022-10-07T14:26:28.906Z,46.48
2022-10-07T14:27:43.332Z,46.31
2022-10-07T14:28:46.988Z,46.37
2022-10-07T14:29:52.428Z,46.46
2022-10-07T14:31:29.678Z,46.66
2022-10-07T14:32:54.705Z,46.65
2022-10-07T14:34:32.656Z,46.66
2022-10-07T14:35:41.171Z,46.84
2022-10-07T14:37:06.618Z,47.01
2022-10-07T14:38:26.205Z,47.38
2022-10-07T14:39:34.104Z,48.19
2022-10-07T14:40:37.610Z,47.91
2022-10-07T14:41:39.965Z,48.01
2022-10-07T14:42:43.768Z,47.99
2022-10-07T14:43:47.831Z,48.22
2022-10-07T14:44:52.238Z,48.98
2022-10-07T14:45:55.350Z,48.81
2022-10-07T14:47:11.173Z,48.91
2022-10-07T14:48:14.395Z,49.17
2022-10-07T14:49:18.777Z,49.24
2022-10-07T14:50:22.655Z,49.56
2022-10-07T14:51:29.151Z,49.87
2022-10-07T14:52:34.339Z,50.05
2022-10-07T14:53:41.810Z,50.17